createdAt,value
2018-07-30T00:02:34.363Z,22.00
2018-07-30T00:05:37.974Z,21.90
2018-07-30T00:08:41.620Z,21.80
2018-07-30T00:11:45.269Z,21.80
2018-07-30T00:14:48.899Z,21.70
2018-07-30T00:17:52.524Z,21.60
2018-07-30T00:20:56.176Z,21.60
2018-07-30T00:24:00.102Z,21.60
2018-07-30T00:27:03.938Z,21.60
2018-07-30T00:30:07.626Z,21.60
2018-07-30T00:33:11.266Z,21.50
2018-07-30T00:37:18.248Z,21.50
2018-07-30T01:24:39.033Z,21.60
2018-07-30T01:27:42.658Z,21.70
2018-07-30T01:30:46.319Z,21.70
2018-07-30T01:36:53.364Z,21.80
2018-07-30T01:39:56.989Z,21.80
2018-07-30T01:43:00.634Z,21.80
2018-07-30T01:46:04.917Z,21.80
2018-07-30T01:49:08.643Z,21.70
2018-07-30T01:52:12.256Z,21.70
2018-07-30T01:55:15.888Z,21.70
2018-07-30T01:58:19.603Z,21.80
2018-07-30T02:01:23.242Z,21.80
2018-07-30T02:04:26.955Z,21.80
2018-07-30T02:07:30.600Z,21.80
2018-07-30T02:10:34.278Z,21.70
2018-07-30T02:13:37.900Z,21.50
2018-07-30T02:16:41.748Z,21.50
2018-07-30T02:19:45.399Z,21.40
2018-07-30T02:22:49.019Z,21.40
2018-07-30T02:25:52.667Z,21.40
2018-07-30T02:28:56.306Z,21.30
2018-07-30T02:31:59.946Z,21.30
2018-07-30T02:35:03.610Z,21.30
2018-07-30T02:38:07.258Z,21.30
2018-07-30T02:41:10.883Z,21.20
2018-07-30T02:47:17.866Z,21.20
2018-07-30T02:50:21.522Z,21.20
2018-07-30T02:53:25.146Z,21.20
2018-07-30T02:56:28.800Z,21.20
2018-07-30T03:02:35.788Z,21.30
2018-07-30T03:05:39.862Z,21.30
2018-07-30T03:08:43.507Z,21.30
2018-07-30T03:11:47.174Z,21.30
2018-07-30T03:14:50.811Z,21.30
2018-07-30T03:17:54.460Z,21.40
2018-07-30T03:20:58.114Z,21.40
2018-07-30T03:24:01.771Z,21.40
2018-07-30T03:27:05.681Z,21.40
2018-07-30T03:30:10.207Z,21.40
2018-07-30T03:33:13.859Z,21.40
2018-07-30T03:39:20.904Z,21.50
2018-07-30T03:42:24.624Z,21.60
2018-07-30T03:45:28.192Z,21.60
2018-07-30T03:48:31.810Z,21.70
2018-07-30T03:51:35.445Z,22.10
2018-07-30T03:54:39.087Z,22.30
2018-07-30T03:57:42.946Z,22.50
2018-07-30T04:00:46.562Z,22.70
2018-07-30T04:03:50.230Z,22.90
2018-07-30T04:06:53.846Z,22.80
2018-07-30T04:09:57.514Z,22.50
2018-07-30T04:13:01.150Z,22.20
2018-07-30T04:16:04.991Z,22.00
2018-07-30T04:19:08.618Z,22.00
2018-07-30T04:22:12.275Z,22.00
2018-07-30T04:25:15.886Z,22.00
2018-07-30T04:28:19.626Z,22.00
2018-07-30T04:31:23.466Z,22.00
2018-07-30T04:34:27.165Z,22.10
2018-07-30T04:37:30.793Z,22.10
2018-07-30T04:40:34.674Z,22.20
2018-07-30T04:43:38.497Z,22.20
2018-07-30T04:46:42.099Z,22.30
2018-07-30T04:49:45.718Z,22.30
2018-07-30T04:52:49.385Z,22.40
2018-07-30T04:55:53.010Z,22.50
2018-07-30T04:58:56.730Z,22.50
2018-07-30T05:02:00.353Z,22.50
2018-07-30T05:05:04.659Z,22.60
2018-07-30T05:08:08.279Z,22.70
2018-07-30T05:11:12.178Z,22.80
2018-07-30T05:14:15.773Z,22.90
2018-07-30T05:20:22.793Z,23.50
2018-07-30T05:23:26.423Z,24.10
2018-07-30T05:26:30.042Z,24.40
2018-07-30T05:29:33.970Z,24.20
2018-07-30T05:32:37.595Z,24.10
2018-07-30T05:35:41.226Z,24.10
2018-07-30T05:38:44.867Z,23.80
2018-07-30T05:41:48.658Z,23.60
2018-07-30T05:44:52.612Z,23.60
2018-07-30T05:50:59.609Z,23.50
2018-07-30T05:57:06.715Z,23.60
2018-07-30T06:00:10.378Z,23.40
2018-07-30T06:03:13.994Z,23.50
2018-07-30T06:06:17.688Z,23.50
2018-07-30T06:09:21.488Z,23.40
2018-07-30T06:12:25.350Z,23.40
2018-07-30T06:15:29.095Z,23.40
2018-07-30T06:18:32.782Z,23.40
2018-07-30T06:21:36.704Z,23.40
2018-07-30T06:24:40.455Z,23.40
2018-07-30T06:27:44.078Z,23.60
2018-07-30T06:30:47.725Z,23.60
2018-07-30T06:33:51.445Z,23.70
2018-07-30T06:39:58.461Z,23.80
2018-07-30T06:46:05.521Z,23.70
2018-07-30T06:49:09.849Z,24.00
2018-07-30T06:52:13.540Z,23.80
2018-07-30T06:55:17.288Z,23.90
2018-07-30T06:58:20.894Z,23.90
2018-07-30T07:04:27.887Z,23.90
2018-07-30T07:13:38.495Z,24.00
2018-07-30T07:16:42.179Z,24.00
2018-07-30T07:25:58.939Z,24.50
2018-07-30T07:32:06.138Z,25.70
2018-07-30T07:38:13.238Z,26.10
2018-07-30T07:44:20.362Z,25.90
2018-07-30T07:47:23.992Z,25.80
2018-07-30T07:50:27.701Z,26.20
2018-07-30T07:53:31.351Z,26.90
2018-07-30T07:56:34.977Z,28.00
2018-07-30T07:59:38.607Z,28.10
2018-07-30T08:02:42.523Z,28.50
2018-07-30T08:05:46.139Z,28.30
2018-07-30T08:08:49.779Z,28.40
2018-07-30T08:11:53.406Z,29.00
2018-07-30T08:14:57.036Z,29.40
2018-07-30T08:18:00.643Z,29.30
2018-07-30T08:21:04.326Z,29.60
2018-07-30T08:24:07.948Z,29.90
2018-07-30T08:27:11.606Z,29.60
2018-07-30T08:30:15.239Z,30.00
2018-07-30T08:33:18.858Z,30.20
2018-07-30T08:36:22.623Z,30.00
2018-07-30T08:39:26.562Z,29.90
2018-07-30T08:42:30.250Z,30.40
2018-07-30T08:45:33.924Z,30.70
2018-07-30T08:51:40.939Z,31.00
2018-07-30T08:54:44.591Z,31.10
2018-07-30T08:57:48.243Z,30.90
2018-07-30T09:00:51.918Z,30.80
2018-07-30T09:03:55.527Z,30.60
2018-07-30T09:10:02.545Z,30.90
2018-07-30T09:13:06.610Z,30.30
2018-07-30T09:16:10.337Z,30.30
2018-07-30T09:19:13.927Z,30.40
2018-07-30T09:22:17.546Z,30.30
2018-07-30T09:25:21.170Z,30.30
2018-07-30T09:28:24.818Z,30.40
2018-07-30T09:31:28.449Z,30.20
2018-07-30T09:37:35.430Z,30.10
2018-07-30T09:40:39.080Z,30.60
2018-07-30T09:43:42.678Z,30.60
2018-07-30T09:46:46.413Z,30.20
2018-07-30T09:49:50.023Z,30.60
2018-07-30T09:52:53.734Z,30.50
2018-07-30T09:55:57.325Z,30.80
2018-07-30T09:59:01.010Z,30.60
2018-07-30T10:02:04.642Z,30.90
2018-07-30T10:05:08.285Z,31.20
2018-07-30T10:08:11.894Z,30.70
2018-07-30T10:11:15.534Z,30.50
2018-07-30T10:17:22.515Z,30.80
2018-07-30T10:20:26.159Z,30.90
2018-07-30T10:23:30.613Z,30.80
2018-07-30T10:26:34.260Z,31.50
2018-07-30T10:29:37.893Z,31.50
2018-07-30T10:35:45.005Z,31.50
2018-07-30T10:38:48.601Z,31.40
2018-07-30T10:48:05.567Z,31.60
2018-07-30T10:51:09.179Z,31.60
2018-07-30T10:54:12.940Z,31.60
2018-07-30T10:57:16.550Z,31.60
2018-07-30T11:00:20.221Z,31.50
2018-07-30T11:03:24.222Z,31.90
2018-07-30T11:06:27.856Z,32.30
2018-07-30T11:09:31.485Z,32.00
2018-07-30T11:12:35.182Z,31.70
2018-07-30T11:18:42.178Z,31.60
2018-07-30T11:21:45.809Z,31.30
2018-07-30T11:24:49.442Z,31.40
2018-07-30T11:27:53.323Z,31.50
2018-07-30T11:30:56.946Z,31.50
2018-07-30T11:34:00.705Z,31.30
2018-07-30T11:37:04.374Z,31.10
2018-07-30T11:40:07.990Z,31.10
2018-07-30T11:43:11.658Z,31.20
2018-07-30T11:46:15.306Z,31.10
2018-07-30T11:49:18.958Z,31.10
2018-07-30T11:52:22.622Z,31.10
2018-07-30T11:55:26.495Z,31.10
2018-07-30T11:58:30.121Z,31.20
2018-07-30T12:07:40.510Z,31.40
2018-07-30T12:10:44.128Z,31.40
2018-07-30T12:16:51.123Z,31.50
2018-07-30T12:22:58.121Z,31.30
2018-07-30T12:26:01.755Z,31.40
2018-07-30T12:29:05.692Z,31.50
2018-07-30T12:32:09.335Z,31.60
2018-07-30T12:38:16.336Z,31.40
2018-07-30T12:41:19.960Z,31.30
2018-07-30T12:44:23.598Z,31.30
2018-07-30T12:47:27.243Z,31.30
2018-07-30T12:50:30.980Z,31.40
2018-07-30T12:53:34.581Z,31.50
2018-07-30T12:56:38.254Z,31.30
2018-07-30T12:59:41.957Z,31.50
2018-07-30T13:02:45.859Z,31.70
2018-07-30T13:05:49.469Z,31.70
2018-07-30T13:11:56.470Z,32.00
2018-07-30T13:18:03.449Z,31.90
2018-07-30T13:21:07.115Z,31.80
2018-07-30T13:24:10.777Z,31.80
2018-07-30T13:27:14.390Z,31.90
2018-07-30T13:30:18.007Z,31.90
2018-07-30T13:33:21.643Z,32.00
2018-07-30T13:36:25.251Z,31.90
2018-07-30T13:39:28.901Z,32.10
2018-07-30T13:42:32.525Z,32.10
2018-07-30T13:45:36.165Z,32.10
2018-07-30T13:48:39.769Z,32.20
2018-07-30T13:51:43.464Z,32.20
2018-07-30T13:54:47.082Z,32.20
2018-07-30T13:57:50.739Z,32.10
2018-07-30T14:00:54.622Z,31.70
2018-07-30T14:03:58.293Z,31.70
2018-07-30T14:07:01.927Z,31.80
2018-07-30T14:10:06.285Z,31.60
2018-07-30T14:13:09.935Z,31.80
2018-07-30T14:16:13.566Z,31.80
2018-07-30T14:19:17.210Z,31.70
2018-07-30T14:22:20.874Z,31.70
2018-07-30T14:25:24.477Z,31.80
2018-07-30T14:28:28.177Z,31.70
2018-07-30T14:31:31.849Z,31.80
2018-07-30T14:37:39.708Z,31.70
2018-07-30T14:40:43.330Z,31.80
2018-07-30T14:43:47.057Z,32.00
2018-07-30T14:46:50.696Z,32.00
2018-07-30T14:49:54.321Z,32.00
2018-07-30T14:52:57.963Z,32.00
2018-07-30T14:56:01.631Z,31.90
2018-07-30T14:59:05.392Z,32.10
2018-07-30T15:02:09.038Z,32.20
2018-07-30T15:05:12.712Z,31.80
2018-07-30T15:08:16.342Z,31.80
2018-07-30T15:11:19.998Z,31.90
2018-07-30T15:17:27.554Z,31.80
2018-07-30T15:20:31.204Z,31.60
2018-07-30T15:23:35.290Z,31.50
2018-07-30T15:26:38.925Z,31.50
2018-07-30T15:32:47.362Z,31.40
2018-07-30T15:38:54.681Z,31.20
2018-07-30T15:41:58.773Z,31.20
2018-07-30T15:45:02.387Z,31.20
2018-07-30T15:48:06.077Z,31.20
2018-07-30T15:51:09.733Z,31.40
2018-07-30T15:54:13.369Z,31.40
2018-07-30T15:57:16.996Z,31.40
2018-07-30T16:00:20.846Z,31.40
2018-07-30T16:03:24.513Z,31.30
2018-07-30T16:06:28.166Z,31.20
2018-07-30T16:09:31.783Z,31.20
2018-07-30T16:12:35.461Z,31.20
2018-07-30T16:15:39.079Z,31.20
2018-07-30T16:18:42.752Z,31.20
2018-07-30T16:21:46.386Z,31.10
2018-07-30T16:24:50.061Z,31.30
2018-07-30T16:27:53.696Z,31.20
2018-07-30T16:30:57.473Z,31.20
2018-07-30T16:34:01.046Z,31.10
2018-07-30T16:37:05.020Z,31.10
2018-07-30T16:40:08.635Z,31.10
2018-07-30T16:46:15.590Z,31.00
2018-07-30T16:49:19.303Z,31.00
2018-07-30T16:52:22.918Z,31.00
2018-07-30T16:55:26.546Z,30.90
2018-07-30T16:58:30.173Z,30.90
2018-07-30T17:01:33.906Z,30.70
2018-07-30T17:04:37.645Z,30.70
2018-07-30T17:07:41.246Z,30.60
2018-07-30T17:13:48.262Z,30.60
2018-07-30T17:16:51.861Z,30.50
2018-07-30T17:19:55.535Z,30.50
2018-07-30T17:22:59.212Z,30.40
2018-07-30T17:26:02.834Z,30.40
2018-07-30T17:29:06.467Z,30.30
2018-07-30T17:35:13.463Z,30.30
2018-07-30T17:38:17.158Z,30.20
2018-07-30T17:41:20.745Z,30.20
2018-07-30T17:44:24.373Z,30.10
2018-07-30T17:47:27.985Z,30.10
2018-07-30T17:50:31.622Z,30.00
2018-07-30T17:53:35.370Z,30.00
2018-07-30T17:56:39.027Z,29.90
2018-07-30T17:59:42.710Z,29.90
2018-07-30T18:02:46.282Z,29.80
2018-07-30T18:05:49.922Z,29.80
2018-07-30T18:08:53.551Z,29.70
2018-07-30T18:11:57.158Z,29.60
2018-07-30T18:15:00.824Z,29.50
2018-07-30T18:18:04.435Z,29.50
2018-07-30T18:21:08.150Z,29.40
2018-07-30T18:24:12.138Z,29.40
2018-07-30T18:27:15.902Z,29.30
2018-07-30T18:30:19.490Z,29.30
2018-07-30T18:33:23.176Z,29.20
2018-07-30T18:36:26.767Z,29.10
2018-07-30T18:39:30.515Z,29.00
2018-07-30T18:42:34.091Z,28.90
2018-07-30T18:45:37.764Z,28.90
2018-07-30T18:48:41.373Z,28.80
2018-07-30T18:51:45.020Z,28.70
2018-07-30T18:54:48.601Z,28.60
2018-07-30T18:57:52.459Z,28.50
2018-07-30T19:00:56.086Z,28.40
2018-07-30T19:03:59.740Z,28.30
2018-07-30T19:07:03.401Z,28.20
2018-07-30T19:10:07.338Z,28.20
2018-07-30T19:16:14.658Z,28.00
2018-07-30T19:19:18.237Z,28.00
2018-07-30T19:22:21.979Z,27.90
2018-07-30T19:25:25.550Z,27.80
2018-07-30T19:31:32.534Z,27.70
2018-07-30T19:34:36.178Z,27.60
2018-07-30T19:40:43.155Z,27.40
2018-07-30T19:46:50.301Z,27.30
2018-07-30T19:49:53.958Z,27.30
2018-07-30T19:52:57.612Z,27.30
2018-07-30T19:56:01.368Z,27.20
2018-07-30T20:02:08.873Z,27.10
2018-07-30T20:05:12.683Z,27.10
2018-07-30T20:08:16.338Z,27.10
2018-07-30T20:11:19.973Z,27.00
2018-07-30T20:17:26.962Z,27.00
2018-07-30T20:20:30.585Z,26.90
2018-07-30T20:26:37.587Z,26.90
2018-07-30T20:32:44.667Z,26.80
2018-07-30T20:35:48.387Z,26.80
2018-07-30T20:38:52.862Z,26.80
2018-07-30T20:41:56.647Z,26.80
2018-07-30T20:45:00.308Z,26.70
2018-07-30T20:48:03.923Z,26.70
2018-07-30T20:51:07.530Z,26.60
2018-07-30T20:54:11.223Z,26.50
2018-07-30T20:57:14.801Z,26.50
2018-07-30T21:00:19.238Z,26.40
2018-07-30T21:06:26.325Z,26.30
2018-07-30T21:09:29.955Z,26.20
2018-07-30T21:15:36.926Z,26.10
2018-07-30T21:18:40.579Z,26.00
2018-07-30T21:21:44.194Z,25.90
2018-07-30T21:24:47.985Z,25.80
2018-07-30T21:27:51.590Z,25.80
2018-07-30T21:30:55.229Z,25.70
2018-07-30T21:33:58.859Z,25.60
2018-07-30T21:40:05.892Z,25.40
2018-07-30T21:43:09.518Z,25.40
2018-07-30T21:46:13.154Z,25.30
2018-07-30T21:49:16.819Z,25.20
2018-07-30T21:52:20.472Z,25.10
2018-07-30T21:58:27.432Z,25.00
2018-07-30T22:01:31.662Z,25.00
2018-07-30T22:04:35.455Z,25.00
2018-07-30T22:07:39.098Z,24.90
2018-07-30T22:10:42.702Z,24.90
2018-07-30T22:13:46.353Z,24.80
2018-07-30T22:16:49.969Z,24.70
2018-07-30T22:19:53.606Z,24.60
2018-07-30T22:22:57.214Z,24.50
2018-07-30T22:26:00.833Z,24.50
2018-07-30T22:29:04.459Z,24.40
2018-07-30T22:32:08.109Z,24.40
2018-07-30T22:38:15.070Z,24.30
2018-07-30T22:41:18.808Z,24.30
2018-07-30T22:44:22.658Z,24.20
2018-07-30T22:47:26.282Z,24.20
2018-07-30T22:50:29.930Z,24.10
2018-07-30T22:53:33.545Z,24.10
2018-07-30T22:56:37.202Z,24.00
2018-07-30T22:59:40.815Z,24.00
2018-07-30T23:02:44.443Z,23.90
2018-07-30T23:05:48.059Z,23.90
2018-07-30T23:08:51.756Z,23.90
2018-07-30T23:11:55.394Z,23.80
2018-07-30T23:14:59.038Z,23.80
2018-07-30T23:18:02.708Z,23.80
2018-07-30T23:21:06.339Z,23.80
2018-07-30T23:24:09.951Z,23.70
2018-07-30T23:30:16.921Z,23.70
2018-07-30T23:33:20.558Z,23.70
2018-07-30T23:36:24.175Z,23.60
2018-07-30T23:39:27.831Z,23.50
2018-07-30T23:42:31.458Z,23.50
2018-07-30T23:48:38.450Z,23.40
2018-07-30T23:51:42.138Z,23.40
2018-07-30T23:54:45.938Z,23.30
2018-07-30T23:57:49.565Z,23.30
